Terminal Aerodrome Forecast
Issued by NWS Upton, NY

Home | Current Version | Previous Version | Text Only | Print | Product List | Glossary On
Versions: 1 2 3 4 5 6 7 8 9 10 11 12 13 14 15 16 17 18 19 20 21 22 23 24 25 26 27 28 29 30
000
FTUS41 KOKX 212324
TAFEWR
TAF
KEWR 212324Z 2200/2306 19008KT P6SM SCT050 SCT250
     FM220200 22006KT P6SM SCT040 SCT250
     FM220800 22006KT 6SM BR SCT015 SCT250
     FM221400 22009KT P6SM FEW025 BKN250
     FM221700 22013G20KT P6SM SCT050 BKN250
     FM222200 23014G23KT P6SM SCT050 BKN250
     FM230200 24013G23KT P6SM VCSH FEW020 BKN050=

USA.gov is the U.S. government's official web portal to all federal, state and local government web resources and services.